• Join FlightAware (Why Join?)
  • Login
  • US Flag 
02:39AM EDT


 

Airport Tracker/Info


-or-


 

Live Flight TrackerFlight Track Log ✈ KAP927 ✈ 30-May-2013 ✈ KALB - KOGS

Flight Track Log - Related Links

Times and Time Zones

All times are in EDT time to prevent confusion due to time zone crossing. See the KAP927 flight status page for this flight to view local times or setup timezone preferences in your user account.

Time Position Orientation Groundspeed Altitude Reporting Facility
EDT Latitude Longitude Course Direction KTS MPH feet Rate Location/Type
02:33PM 42.7819 -73.8150 341° North 110 127 1,300  Level Boston Center
02:34PM 42.8128 -73.8297 341° North 111 128 1,900 480 Climbing Boston Center
02:35PM 42.8397 -73.8417 342° North 109 125 2,300 540 Climbing Boston Center
02:37PM 42.8772 -73.8539 347° North 114 131 3,100 660 Climbing Boston Center
02:38PM 42.9083 -73.8689 341° North 115 132 3,800 540 Climbing Boston Center
02:39PM 42.9372 -73.8836 340° North 118 136 4,200 360 Climbing Boston Center
02:40PM 42.9725 -73.8958 346° North 129 148 4,500 420 Climbing Boston Center
02:41PM 43.0119 -73.9081 347° North 130 150 5,200 540 Climbing Boston Center
02:42PM 43.0389 -73.9258 334° Northwest 120 138 5,700 540 Climbing Boston Center
02:43PM 43.0656 -73.9492 327° Northwest 115 132 6,300 360 Climbing Boston Center
02:44PM 43.0967 -73.9697 334° Northwest 121 139 6,500 60 Climbing Boston Center
02:45PM 43.1317 -73.9933 334° Northwest 141 162 6,500 -300 Level Boston Center
02:46PM 43.1731 -74.0200 335° Northwest 164 189 5,900 -480 Descending Boston Center
02:46PM 43.1894 -74.0319 332° Northwest 170 196 5,800 -300 Descending Boston Center
02:47PM 43.2350 -74.0617 335° Northwest 170 196 5,500 -300 Descending Boston Center
02:48PM 43.2700 -74.0883 331° Northwest 164 189 5,200 420 Descending Boston Center
02:49PM 43.3031 -74.1147 330° Northwest 143 165 6,400 840 Climbing Boston Center
02:50PM 43.3278 -74.1383 325° Northwest 120 138 6,900 600 Climbing Boston Center
02:51PM 43.3522 -74.1619 325° Northwest 106 122 7,700 660 Climbing Boston Center
02:52PM 43.3750 -74.1825 327° Northwest 106 122 8,300 600 Climbing Boston Center
02:53PM 43.4036 -74.2119 323° Northwest 106 122 9,000 600 Climbing Boston Center
02:54PM 43.4303 -74.2356 327° Northwest 111 128 9,500 360 Climbing Boston Center
02:55PM 43.4550 -74.2592 325° Northwest 111 128 9,800 360 Climbing Boston Center
02:56PM 43.4942 -74.2947 327° Northwest 128 147 10,300 300 Climbing Boston Center
02:57PM 43.5289 -74.3272 326° Northwest 138 159 10,500 120 Climbing Boston Center
02:58PM 43.5639 -74.3628 324° Northwest 150 173 10,600  Climbing Boston Center
02:59PM 43.6050 -74.3983 328° Northwest 155 178 10,600  Level Boston Center
03:01PM 43.6522 -74.4403 327° Northwest 160 184 10,600  Level Boston Center
03:02PM 43.6950 -74.4847 323° Northwest 165 190 10,600  Level Boston Center
03:03PM 43.7258 -74.5086 331° Northwest 165 190 10,600  Level Boston Center
03:04PM 43.7689 -74.5533 323° Northwest 165 190 10,700  Climbing Boston Center
03:05PM 43.8058 -74.5892 325° Northwest 165 190 10,700  Level Boston Center
03:06PM 43.8486 -74.6308 325° Northwest 160 184 10,700 -60 Level Boston Center
03:07PM 43.8856 -74.6669 325° Northwest 160 184 10,600 -120 Descending Boston Center
03:08PM 43.9222 -74.7028 325° Northwest 160 184 10,500 -180 Descending Boston Center
03:09PM 43.9592 -74.7389 325° Northwest 160 184 10,300 -360 Descending Boston Center
03:10PM 44.0000 -74.7750 328° Northwest 166 191 9,800 -540 Descending Boston Center
03:11PM 44.0431 -74.8142 327° Northwest 172 198 9,300 -540 Descending Boston Center
03:12PM 44.0839 -74.8564 323° Northwest 172 198 8,800 -480 Descending Boston Center
03:13PM 44.1247 -74.8928 327° Northwest 172 198 8,400 -540 Descending Boston Center
03:14PM 44.1636 -74.9319 324° Northwest 172 198 7,800 -540 Descending Boston Center
03:15PM 44.2044 -74.9628 332° Northwest 172 198 7,400 -420 Descending Boston Center
03:16PM 44.2431 -75.0050 322° Northwest 172 198 7,000 -420 Descending Boston Center
03:17PM 44.2819 -75.0383 328° Northwest 172 198 6,600 -540 Descending Boston Center
03:18PM 44.3228 -75.0781 325° Northwest 172 198 6,000 -660 Descending Boston Center
03:19PM 44.3614 -75.1144 326° Northwest 173 199 5,300 -600 Descending Boston Center
03:20PM 44.4003 -75.1542 324° Northwest 173 199 4,800 -540 Descending Boston Center
03:21PM 44.4392 -75.1850 330° Northwest 173 199 4,300 -600 Descending Boston Center
03:22PM 44.4778 -75.2244 324° Northwest 173 199 3,700 -660 Descending Boston Center
03:23PM 44.5206 -75.2617 328° Northwest 173 199 3,000 -720 Descending Boston Center